Time;durP1;ratioP1;P1;durP2;ratioP2;P2;SDS_P1;SDS_P2;PMS_P1;PMS_P2;Temp;Humidity;BMP_temperature;BMP_pressure;BME280_temperature;BME280_humidity;BME280_pressure;Samples;Min_cycle;Max_cycle;Signal;HPM_P1;HPM_P2
2023/02/14 00:01:30;;;;;;;;;;;21.70;53.00;;;;;;1591715;73;1094;-62
2023/02/14 00:03:32;;;;;;;;;;;21.80;52.90;;;;;;1596608;73;670;-63
2023/02/14 00:05:34;;;;;;;;;;;21.80;52.80;;;;;;1596913;73;1944;-63
2023/02/14 00:07:35;;;;;;;;;;;21.80;52.90;;;;;;1588199;73;699;-62
2023/02/14 00:09:37;;;;;;;;;;;21.80;52.80;;;;;;1590679;73;1539;-61
2023/02/14 00:11:39;;;;;;;;;;;21.80;52.60;;;;;;1596976;73;708;-62
2023/02/14 00:15:20;;;;;;;;;;;21.90;52.70;;;;;;1589928;73;695;-61
2023/02/14 00:15:45;;;;;;;;;;;21.80;52.60;;;;;;1593518;73;1437;-62
2023/02/14 00:17:47;;;;;;;;;;;21.90;52.50;;;;;;1573974;74;633;-61
2023/02/14 00:19:49;;;;;;;;;;;21.80;52.30;;;;;;1594894;73;1153;-61
2023/02/14 00:21:51;;;;;;;;;;;21.80;52.30;;;;;;1589906;73;759;-63
2023/02/14 00:23:53;;;;;;;;;;;21.80;52.40;;;;;;1593643;73;1556;-62
2023/02/14 00:25:54;;;;;;;;;;;21.80;52.60;;;;;;1591357;73;1934;-61
2023/02/14 00:27:56;;;;;;;;;;;21.80;52.60;;;;;;1583000;73;720;-63
2023/02/14 00:30:01;;;;;;;;;;;21.80;52.60;;;;;;1595169;73;1148;-63
2023/02/14 00:32:02;;;;;;;;;;;21.80;52.60;;;;;;1587367;73;1659;-62
2023/02/14 00:34:04;;;;;;;;;;;21.90;52.70;;;;;;1588370;73;738;-62
2023/02/14 00:36:06;;;;;;;;;;;21.80;52.70;;;;;;1600439;73;857;-62
2023/02/14 00:38:08;;;;;;;;;;;21.80;52.80;;;;;;1590668;73;1534;-63
2023/02/14 00:40:10;;;;;;;;;;;21.80;52.80;;;;;;1587210;73;1127;-61
2023/02/14 00:42:12;;;;;;;;;;;21.80;53.10;;;;;;1587838;73;707;-61
2023/02/14 00:44:14;;;;;;;;;;;21.70;53.40;;;;;;1584650;73;782;-62
2023/02/14 00:46:16;;;;;;;;;;;21.60;53.50;;;;;;1592135;73;1958;-63
2023/02/14 00:48:18;;;;;;;;;;;21.60;53.50;;;;;;1585985;73;934;-62
2023/02/14 00:50:20;;;;;;;;;;;21.60;53.70;;;;;;1583307;73;1061;-61
2023/02/14 00:52:21;;;;;;;;;;;21.60;53.80;;;;;;1590003;73;1572;-62
2023/02/14 00:54:23;;;;;;;;;;;21.50;53.90;;;;;;1541314;76;719;-61
2023/02/14 00:56:25;;;;;;;;;;;21.60;53.60;;;;;;1533259;76;766;-61
2023/02/14 00:58:27;;;;;;;;;;;21.70;53.50;;;;;;1553154;74;711;-63
2023/02/14 01:00:29;;;;;;;;;;;21.70;53.30;;;;;;1555250;75;1140;-63
2023/02/14 01:02:31;;;;;;;;;;;21.70;53.10;;;;;;1555026;75;866;-62
2023/02/14 01:04:33;;;;;;;;;;;21.70;53.40;;;;;;1555566;75;789;-62
2023/02/14 01:06:35;;;;;;;;;;;21.80;53.20;;;;;;1558622;75;1935;-62
2023/02/14 01:08:37;;;;;;;;;;;21.80;53.00;;;;;;1547487;75;697;-61
2023/02/14 01:10:38;;;;;;;;;;;21.80;52.90;;;;;;1554730;75;1182;-62
2023/02/14 01:12:40;;;;;;;;;;;21.90;52.90;;;;;;1561113;75;790;-61
2023/02/14 01:14:42;;;;;;;;;;;21.90;52.90;;;;;;1551406;75;742;-63
2023/02/14 01:16:44;;;;;;;;;;;21.80;52.80;;;;;;1546654;74;764;-63
2023/02/14 01:18:46;;;;;;;;;;;21.90;52.90;;;;;;1545296;75;710;-62
2023/02/14 01:20:48;;;;;;;;;;;21.90;52.80;;;;;;1554556;75;1586;-62
2023/02/14 01:22:50;;;;;;;;;;;21.90;52.80;;;;;;1556817;75;623;-62
2023/02/14 01:24:51;;;;;;;;;;;21.80;52.70;;;;;;1557313;75;698;-61
2023/02/14 01:26:53;;;;;;;;;;;21.80;52.70;;;;;;1519625;75;1948;-61
2023/02/14 01:28:55;;;;;;;;;;;21.40;52.50;;;;;;1529886;77;809;-61
2023/02/14 01:30:57;;;;;;;;;;;21.90;53.10;;;;;;1534208;77;1176;-62
2023/02/14 01:32:59;;;;;;;;;;;21.80;52.90;;;;;;1537689;77;706;-60
2023/02/14 01:35:01;;;;;;;;;;;21.90;53.00;;;;;;1526446;77;1503;-62
2023/02/14 01:37:03;;;;;;;;;;;21.90;52.80;;;;;;1523802;77;644;-62
2023/02/14 01:39:10;;;;;;;;;;;21.90;52.80;;;;;;1531856;77;685;-61
2023/02/14 01:41:12;;;;;;;;;;;21.80;52.70;;;;;;1531571;77;1151;-62
2023/02/14 01:43:16;;;;;;;;;;;21.90;52.70;;;;;;1523965;77;647;-61
2023/02/14 01:45:19;;;;;;;;;;;21.90;52.80;;;;;;1526352;77;646;-63
2023/02/14 01:47:20;;;;;;;;;;;21.80;52.80;;;;;;1520163;77;1948;-61
2023/02/14 01:49:24;;;;;;;;;;;21.80;52.80;;;;;;1532894;77;1388;-62
2023/02/14 01:51:26;;;;;;;;;;;21.80;52.80;;;;;;1519349;77;1131;-62
2023/02/14 01:53:28;;;;;;;;;;;21.80;52.80;;;;;;1523880;77;684;-62
2023/02/14 01:55:31;;;;;;;;;;;21.80;52.90;;;;;;1528273;77;797;-62
2023/02/14 01:57:35;;;;;;;;;;;21.70;53.10;;;;;;1528700;77;680;-62
2023/02/14 01:59:38;;;;;;;;;;;21.70;53.40;;;;;;1529031;77;1849;-62
2023/02/14 02:01:40;;;;;;;;;;;21.60;53.60;;;;;;1540832;77;693;-63
2023/02/14 02:03:43;;;;;;;;;;;21.60;53.60;;;;;;1527330;77;1619;-62
2023/02/14 02:05:47;;;;;;;;;;;21.50;53.80;;;;;;1534617;77;1925;-61
2023/02/14 02:07:50;;;;;;;;;;;21.50;53.90;;;;;;1526215;77;709;-62
2023/02/14 02:09:56;;;;;;;;;;;21.50;54.00;;;;;;1530962;77;1151;-60
2023/02/14 02:11:58;;;;;;;;;;;21.50;54.10;;;;;;1522827;77;887;-62
2023/02/14 02:14:00;;;;;;;;;;;21.40;54.00;;;;;;1538745;77;741;-61
2023/02/14 02:16:03;;;;;;;;;;;21.40;54.10;;;;;;1533211;77;1311;-61
2023/02/14 02:18:13;;;;;;;;;;;21.40;54.10;;;;;;1531218;77;809;-63
2023/02/14 02:20:22;;;;;;;;;;;21.40;54.20;;;;;;1531711;77;1951;-63
2023/02/14 02:22:28;;;;;;;;;;;21.40;54.30;;;;;;1538624;77;728;-61
2023/02/14 02:24:37;;;;;;;;;;;21.40;54.40;;;;;;1488689;77;964;-60
2023/02/14 02:26:41;;;;;;;;;;;21.40;54.40;;;;;;1538781;75;1952;-61
2023/02/14 02:28:50;;;;;;;;;;;21.30;54.50;;;;;;1535921;75;1659;-62
2023/02/14 02:31:09;;;;;;;;;;;21.30;54.50;;;;;;1535071;75;2018;-61
2023/02/14 02:33:29;;;;;;;;;;;21.20;54.40;;;;;;1527085;75;709;-62
2023/02/14 02:35:44;;;;;;;;;;;21.30;54.70;;;;;;1538858;75;724;-63
2023/02/14 02:37:57;;;;;;;;;;;21.30;54.70;;;;;;1533858;75;1703;-67
2023/02/14 02:40:18;;;;;;;;;;;21.30;54.80;;;;;;1542725;75;1183;-64
2023/02/14 02:42:25;;;;;;;;;;;21.30;54.70;;;;;;1545402;75;1572;-64
2023/02/14 02:44:45;;;;;;;;;;;21.30;54.70;;;;;;1540745;75;1578;-62
2023/02/14 02:46:49;;;;;;;;;;;21.30;54.70;;;;;;1544109;75;1944;-62
2023/02/14 02:49:01;;;;;;;;;;;21.40;54.50;;;;;;1551134;75;727;-63
2023/02/14 02:53:25;;;;;;;;;;;21.50;54.40;;;;;;1540566;75;1632;-62
2023/02/14 02:58:05;;;;;;;;;;;21.60;54.30;;;;;;1536990;75;1681;-62
2023/02/14 03:00:08;;;;;;;;;;;21.70;54.20;;;;;;1535631;75;1104;-63
2023/02/14 03:02:18;;;;;;;;;;;21.80;54.10;;;;;;1536390;75;715;-64
2023/02/14 03:06:39;;;;;;;;;;;21.80;53.80;;;;;;1539915;75;1918;-63
2023/02/14 03:08:41;;;;;;;;;;;21.80;53.90;;;;;;1527346;77;791;-63
2023/02/14 03:10:43;;;;;;;;;;;21.80;53.90;;;;;;1537008;75;1142;-62
2023/02/14 03:13:02;;;;;;;;;;;21.80;53.90;;;;;;1524744;75;1546;-62
2023/02/14 03:15:23;;;;;;;;;;;21.80;53.90;;;;;;1528103;75;636;-65
2023/02/14 03:17:43;;;;;;;;;;;21.80;54.00;;;;;;1532495;75;1082;-62
2023/02/14 03:20:14;;;;;;;;;;;21.70;54.10;;;;;;1545777;75;1079;-62
2023/02/14 03:22:36;;;;;;;;;;;21.70;54.20;;;;;;1529288;75;688;-62
2023/02/14 03:24:45;;;;;;;;;;;21.70;54.20;;;;;;1524363;76;1839;-63
2023/02/14 03:26:48;;;;;;;;;;;21.70;54.20;;;;;;1536589;77;1918;-64
2023/02/14 03:28:54;;;;;;;;;;;21.70;54.30;;;;;;1557760;75;1131;-63
2023/02/14 03:31:04;;;;;;;;;;;21.70;54.20;;;;;;1555218;75;1806;-62
2023/02/14 03:33:07;;;;;;;;;;;21.70;54.20;;;;;;1556216;75;678;-69
2023/02/14 03:35:14;;;;;;;;;;;21.70;54.30;;;;;;1557068;75;774;-62
2023/02/14 03:37:29;;;;;;;;;;;21.70;54.30;;;;;;1553441;75;744;-68
2023/02/14 03:39:39;;;;;;;;;;;21.80;54.00;;;;;;1556785;75;925;-62
2023/02/14 03:41:42;;;;;;;;;;;21.90;53.90;;;;;;1554769;75;1559;-63
2023/02/14 03:43:46;;;;;;;;;;;21.90;53.60;;;;;;1553547;75;686;-63
2023/02/14 03:46:06;;;;;;;;;;;22.00;53.60;;;;;;1552047;75;1641;-62
2023/02/14 03:48:08;;;;;;;;;;;22.00;53.60;;;;;;1549182;75;1936;-62
2023/02/14 03:50:11;;;;;;;;;;;21.90;53.50;;;;;;1566377;75;1167;-62
2023/02/14 03:52:12;;;;;;;;;;;22.00;53.40;;;;;;1549937;75;793;-62
2023/02/14 03:54:15;;;;;;;;;;;22.00;53.20;;;;;;1559746;75;700;-62
2023/02/14 03:56:35;;;;;;;;;;;22.00;53.30;;;;;;1555900;75;1702;-62
2023/02/14 03:58:38;;;;;;;;;;;22.00;53.30;;;;;;1551281;75;752;-62
2023/02/14 04:00:40;;;;;;;;;;;22.00;53.30;;;;;;1560538;75;1153;-65
2023/02/14 04:02:46;;;;;;;;;;;22.00;53.20;;;;;;1554968;75;794;-64
2023/02/14 04:04:47;;;;;;;;;;;22.00;53.10;;;;;;1555665;75;771;-64
2023/02/14 04:06:49;;;;;;;;;;;22.00;53.10;;;;;;1555977;75;1943;-62
2023/02/14 04:08:51;;;;;;;;;;;22.10;53.10;;;;;;1558013;75;1527;-63
2023/02/14 04:10:53;;;;;;;;;;;22.10;53.10;;;;;;1556768;75;1132;-64
2023/02/14 04:12:55;;;;;;;;;;;22.00;53.40;;;;;;1553949;75;699;-63
2023/02/14 04:14:57;;;;;;;;;;;22.00;53.50;;;;;;1554226;75;725;-64
2023/02/14 04:19:21;;;;;;;;;;;22.00;53.80;;;;;;1554290;75;1688;-63
2023/02/14 04:21:23;;;;;;;;;;;22.00;53.80;;;;;;1560568;75;1104;-66
2023/02/14 04:23:25;;;;;;;;;;;22.00;53.90;;;;;;1560117;75;1523;-66
2023/02/14 04:25:27;;;;;;;;;;;22.00;53.90;;;;;;1556575;75;823;-62
2023/02/14 04:27:29;;;;;;;;;;;22.00;53.80;;;;;;1566055;75;1965;-62
2023/02/14 04:29:31;;;;;;;;;;;22.10;53.70;;;;;;1567874;75;1046;-63
2023/02/14 04:31:33;;;;;;;;;;;22.00;53.60;;;;;;1557560;75;1147;-62
2023/02/14 04:33:35;;;;;;;;;;;22.00;53.50;;;;;;1561550;75;794;-62
2023/02/14 04:35:37;;;;;;;;;;;22.10;53.60;;;;;;1565099;75;694;-63
2023/02/14 04:37:39;;;;;;;;;;;22.00;53.50;;;;;;1556519;75;1521;-65
2023/02/14 04:39:40;;;;;;;;;;;22.10;53.60;;;;;;1557482;75;1145;-67
2023/02/14 04:41:42;;;;;;;;;;;22.00;53.40;;;;;;1559871;75;707;-65
2023/02/14 04:43:44;;;;;;;;;;;22.00;53.50;;;;;;1558442;75;705;-62
2023/02/14 04:45:46;;;;;;;;;;;22.00;53.40;;;;;;1555913;75;775;-65
2023/02/14 04:47:48;;;;;;;;;;;22.00;53.40;;;;;;1562467;75;1932;-66
2023/02/14 04:49:50;;;;;;;;;;;22.00;53.40;;;;;;1554602;75;1177;-64
2023/02/14 04:51:52;;;;;;;;;;;22.00;53.60;;;;;;1558974;75;1615;-67
2023/02/14 04:53:53;;;;;;;;;;;22.00;53.40;;;;;;1554928;75;718;-65
2023/02/14 04:55:55;;;;;;;;;;;22.00;53.40;;;;;;1562641;75;774;-62
2023/02/14 04:57:57;;;;;;;;;;;22.00;53.20;;;;;;1557210;75;785;-63
2023/02/14 04:59:59;;;;;;;;;;;21.90;53.30;;;;;;1560102;75;1065;-69
2023/02/14 05:02:01;;;;;;;;;;;21.90;53.30;;;;;;1559607;75;702;-63
2023/02/14 05:04:03;;;;;;;;;;;21.90;53.30;;;;;;1560745;75;720;-65
2023/02/14 05:06:05;;;;;;;;;;;22.00;53.20;;;;;;1557890;75;1586;-68
2023/02/14 05:08:07;;;;;;;;;;;21.90;53.30;;;;;;1556666;75;1939;-67
2023/02/14 05:10:09;;;;;;;;;;;21.90;53.20;;;;;;1551340;75;1146;-66
2023/02/14 05:12:11;;;;;;;;;;;21.90;53.20;;;;;;1560561;75;702;-64
2023/02/14 05:14:13;;;;;;;;;;;21.90;53.20;;;;;;1561764;75;756;-63
2023/02/14 05:16:15;;;;;;;;;;;21.90;53.10;;;;;;1560096;75;675;-65
2023/02/14 05:18:17;;;;;;;;;;;21.90;53.20;;;;;;1568098;75;709;-63
2023/02/14 05:20:19;;;;;;;;;;;21.90;53.10;;;;;;1550354;75;1541;-65
2023/02/14 05:22:21;;;;;;;;;;;21.90;53.30;;;;;;1564811;75;675;-67
2023/02/14 05:24:23;;;;;;;;;;;21.90;53.90;;;;;;1561908;75;637;-68
2023/02/14 05:26:24;;;;;;;;;;;21.90;53.90;;;;;;1556007;75;688;-69
2023/02/14 05:28:26;;;;;;;;;;;21.80;53.60;;;;;;1566281;75;1935;-66
2023/02/14 05:30:28;;;;;;;;;;;21.80;53.50;;;;;;1545205;76;1189;-64
2023/02/14 05:32:30;;;;;;;;;;;21.80;53.60;;;;;;1548986;76;734;-65
2023/02/14 05:34:32;;;;;;;;;;;21.90;53.60;;;;;;1543046;76;1676;-64
2023/02/14 05:36:34;;;;;;;;;;;21.80;53.50;;;;;;1540654;76;743;-64
2023/02/14 05:38:36;;;;;;;;;;;21.90;53.40;;;;;;1543176;76;777;-65
2023/02/14 05:40:38;;;;;;;;;;;21.90;53.30;;;;;;1543908;76;1149;-65
2023/02/14 05:42:40;;;;;;;;;;;21.90;53.40;;;;;;1542992;76;745;-67
2023/02/14 05:44:42;;;;;;;;;;;21.80;53.50;;;;;;1542169;76;680;-68
2023/02/14 05:46:43;;;;;;;;;;;21.90;53.50;;;;;;1541890;75;760;-64
2023/02/14 05:48:45;;;;;;;;;;;21.90;53.60;;;;;;1541086;75;1940;-66
2023/02/14 05:50:47;;;;;;;;;;;21.90;53.50;;;;;;1547795;76;1171;-64
2023/02/14 05:52:49;;;;;;;;;;;21.90;53.70;;;;;;1542821;76;849;-64
2023/02/14 05:54:51;;;;;;;;;;;21.90;53.40;;;;;;1551147;76;682;-63
2023/02/14 05:56:53;;;;;;;;;;;21.90;53.40;;;;;;1542751;76;663;-66
2023/02/14 05:58:55;;;;;;;;;;;21.90;53.40;;;;;;1540038;76;702;-63
2023/02/14 06:00:57;;;;;;;;;;;21.90;53.50;;;;;;1550655;76;1584;-63
2023/02/14 06:02:59;;;;;;;;;;;21.80;53.30;;;;;;1532243;75;683;-63
2023/02/14 06:05:01;;;;;;;;;;;21.80;53.40;;;;;;1541591;75;757;-68
2023/02/14 06:07:03;;;;;;;;;;;21.90;53.50;;;;;;1529649;77;727;-65
2023/02/14 06:09:05;;;;;;;;;;;21.90;53.90;;;;;;1538749;76;1923;-65
2023/02/14 06:11:07;;;;;;;;;;;21.80;53.60;;;;;;1545561;76;1161;-65
2023/02/14 06:13:09;;;;;;;;;;;21.80;53.70;;;;;;1539967;76;696;-64
2023/02/14 06:15:11;;;;;;;;;;;21.70;53.60;;;;;;1537029;76;1459;-65
2023/02/14 06:17:13;;;;;;;;;;;21.80;53.40;;;;;;1538896;76;691;-64
2023/02/14 06:19:15;;;;;;;;;;;21.70;53.40;;;;;;1541167;76;732;-66
2023/02/14 06:21:17;;;;;;;;;;;21.80;53.30;;;;;;1536115;76;1126;-67
2023/02/14 06:23:18;;;;;;;;;;;21.80;53.20;;;;;;1535181;76;719;-65
2023/02/14 06:25:20;;;;;;;;;;;21.70;53.20;;;;;;1534756;76;725;-64
2023/02/14 06:27:22;;;;;;;;;;;21.70;53.20;;;;;;1534616;76;1953;-65
2023/02/14 06:29:24;;;;;;;;;;;21.70;53.10;;;;;;1533286;76;1528;-64
2023/02/14 06:31:26;;;;;;;;;;;21.70;53.40;;;;;;1529415;77;1164;-65
2023/02/14 06:33:28;;;;;;;;;;;21.70;53.60;;;;;;1525341;77;704;-67
2023/02/14 06:35:30;;;;;;;;;;;21.70;53.40;;;;;;1523505;77;731;-69
2023/02/14 06:37:32;;;;;;;;;;;21.80;53.40;;;;;;1529892;77;785;-66
2023/02/14 06:39:34;;;;;;;;;;;21.70;53.30;;;;;;1524900;77;681;-66
2023/02/14 06:41:35;;;;;;;;;;;21.80;53.20;;;;;;1522327;76;1131;-65
2023/02/14 06:43:37;;;;;;;;;;;21.80;53.10;;;;;;1538077;77;1537;-66
2023/02/14 06:45:42;;;;;;;;;;;21.80;53.10;;;;;;1521959;77;685;-66
2023/02/14 06:47:44;;;;;;;;;;;21.80;53.00;;;;;;1521782;77;1936;-67
2023/02/14 06:49:46;;;;;;;;;;;21.80;52.90;;;;;;1522222;77;1182;-65
2023/02/14 06:51:48;;;;;;;;;;;21.80;52.90;;;;;;1527749;77;720;-65
2023/02/14 06:53:50;;;;;;;;;;;21.70;52.90;;;;;;1524917;77;728;-64
2023/02/14 06:55:52;;;;;;;;;;;21.80;52.80;;;;;;1522297;77;814;-69
2023/02/14 06:57:53;;;;;;;;;;;21.70;52.80;;;;;;1523041;77;1541;-69
2023/02/14 06:59:55;;;;;;;;;;;21.80;52.60;;;;;;1525881;77;1139;-65
2023/02/14 07:01:57;;;;;;;;;;;21.70;52.60;;;;;;1522945;76;803;-65
2023/02/14 07:03:59;;;;;;;;;;;21.70;52.50;;;;;;1525776;77;690;-65
2023/02/14 07:06:01;;;;;;;;;;;21.70;52.50;;;;;;1522692;77;775;-66
2023/02/14 07:08:03;;;;;;;;;;;21.70;52.40;;;;;;1529145;77;1965;-67
2023/02/14 07:10:05;;;;;;;;;;;21.70;52.30;;;;;;1523032;77;1139;-68
2023/02/14 07:12:07;;;;;;;;;;;21.70;52.30;;;;;;1532724;77;1539;-68
2023/02/14 07:14:09;;;;;;;;;;;21.70;52.20;;;;;;1528996;76;748;-69
2023/02/14 07:16:11;;;;;;;;;;;21.70;52.10;;;;;;1524729;77;796;-65
2023/02/14 07:18:13;;;;;;;;;;;21.70;52.10;;;;;;1532867;77;732;-65
2023/02/14 07:20:14;;;;;;;;;;;21.70;52.10;;;;;;1523166;77;1060;-67
2023/02/14 07:22:16;;;;;;;;;;;21.60;52.00;;;;;;1528108;77;731;-65
2023/02/14 07:24:18;;;;;;;;;;;21.70;52.00;;;;;;1531218;77;710;-66
2023/02/14 07:26:20;;;;;;;;;;;21.60;51.90;;;;;;1528585;77;1547;-69
2023/02/14 07:28:22;;;;;;;;;;;21.60;51.90;;;;;;1527160;77;1932;-65
2023/02/14 07:30:24;;;;;;;;;;;21.60;51.90;;;;;;1545822;76;1138;-66
2023/02/14 07:32:26;;;;;;;;;;;21.60;51.80;;;;;;1546490;76;708;-66
2023/02/14 07:34:27;;;;;;;;;;;21.60;51.80;;;;;;1539284;76;784;-65
2023/02/14 07:36:29;;;;;;;;;;;21.60;51.70;;;;;;1535812;76;749;-65
2023/02/14 07:38:31;;;;;;;;;;;21.60;51.60;;;;;;1548734;76;808;-67
2023/02/14 07:40:33;;;;;;;;;;;21.70;51.70;;;;;;1544261;76;1549;-67
2023/02/14 07:42:35;;;;;;;;;;;21.60;51.60;;;;;;1538815;76;729;-66
2023/02/14 07:44:40;;;;;;;;;;;21.60;51.60;;;;;;1535077;76;695;-65
2023/02/14 07:46:42;;;;;;;;;;;21.60;51.50;;;;;;1547616;76;676;-64
2023/02/14 07:48:44;;;;;;;;;;;21.60;51.60;;;;;;1535325;76;1947;-65
2023/02/14 07:50:47;;;;;;;;;;;21.60;51.60;;;;;;1558142;76;1157;-65
2023/02/14 07:52:49;;;;;;;;;;;21.60;51.70;;;;;;1541234;76;755;-66
2023/02/14 07:54:50;;;;;;;;;;;21.50;51.90;;;;;;1535366;76;1581;-66
2023/02/14 07:56:52;;;;;;;;;;;21.50;52.00;;;;;;1535296;76;816;-68
2023/02/14 07:58:54;;;;;;;;;;;21.50;52.00;;;;;;1535454;76;673;-64
2023/02/14 08:00:56;;;;;;;;;;;21.50;51.90;;;;;;1540879;76;1130;-65
2023/02/14 08:02:58;;;;;;;;;;;21.50;51.90;;;;;;1538090;76;708;-65
2023/02/14 08:05:00;;;;;;;;;;;21.50;51.80;;;;;;1534959;76;721;-64
2023/02/14 08:07:02;;;;;;;;;;;21.50;51.80;;;;;;1535868;76;691;-66
2023/02/14 08:09:03;;;;;;;;;;;21.50;51.80;;;;;;1535840;76;1936;-66
2023/02/14 08:11:05;;;;;;;;;;;21.50;51.70;;;;;;1535323;76;1060;-65
2023/02/14 08:13:07;;;;;;;;;;;21.50;51.80;;;;;;1536722;76;684;-64
2023/02/14 08:17:29;;;;;;;;;;;21.50;51.70;;;;;;1542472;76;864;-62
2023/02/14 08:19:31;;;;;;;;;;;21.60;51.70;;;;;;1539837;76;693;-62
2023/02/14 08:21:33;;;;;;;;;;;21.50;51.70;;;;;;1535264;76;1393;-62
2023/02/14 08:23:35;;;;;;;;;;;21.50;51.60;;;;;;1536830;76;708;-62
2023/02/14 08:25:37;;;;;;;;;;;21.50;51.60;;;;;;1536047;76;746;-61
2023/02/14 08:27:39;;;;;;;;;;;21.50;51.60;;;;;;1535795;76;662;-61
2023/02/14 08:29:41;;;;;;;;;;;21.50;51.60;;;;;;1542122;76;1947;-62
2023/02/14 08:31:42;;;;;;;;;;;21.60;51.60;;;;;;1533607;76;1070;-62
2023/02/14 08:33:44;;;;;;;;;;;21.50;51.50;;;;;;1603172;73;796;-62
2023/02/14 08:35:46;;;;;;;;;;;21.40;51.40;;;;;;1601879;73;1517;-62
2023/02/14 08:37:48;;;;;;;;;;;21.50;51.60;;;;;;1587826;73;747;-62
2023/02/14 08:39:50;;;;;;;;;;;21.50;51.50;;;;;;1590194;73;1167;-61
2023/02/14 08:41:52;;;;;;;;;;;21.50;51.50;;;;;;1602306;73;727;-62
2023/02/14 08:43:54;;;;;;;;;;;21.50;51.60;;;;;;1581741;73;781;-62
2023/02/14 08:45:55;;;;;;;;;;;21.50;51.50;;;;;;1583102;72;808;-63
2023/02/14 08:48:01;;;;;;;;;;;21.50;51.60;;;;;;1592636;73;702;-63
2023/02/14 08:50:04;;;;;;;;;;;21.50;51.60;;;;;;1599761;73;1951;-61
2023/02/14 08:52:06;;;;;;;;;;;21.50;51.60;;;;;;1594499;73;782;-63
2023/02/14 08:54:08;;;;;;;;;;;21.40;51.50;;;;;;1593526;73;735;-63
2023/02/14 08:56:10;;;;;;;;;;;21.40;51.60;;;;;;1588096;73;649;-62
2023/02/14 08:58:12;;;;;;;;;;;21.50;51.70;;;;;;1593616;73;766;-61
2023/02/14 09:00:14;;;;;;;;;;;21.50;51.70;;;;;;1584001;73;1147;-62
2023/02/14 09:02:16;;;;;;;;;;;21.50;51.80;;;;;;1587980;73;692;-60
2023/02/14 09:04:18;;;;;;;;;;;21.40;51.60;;;;;;1585664;73;1321;-61
2023/02/14 09:06:20;;;;;;;;;;;21.40;51.70;;;;;;1588077;73;784;-63
2023/02/14 09:08:22;;;;;;;;;;;21.30;51.70;;;;;;1601277;73;1950;-63
2023/02/14 09:10:24;;;;;;;;;;;21.40;51.70;;;;;;1591842;73;1136;-62
2023/02/14 09:12:26;;;;;;;;;;;21.40;51.70;;;;;;1587646;73;740;-62
2023/02/14 09:14:28;;;;;;;;;;;21.30;51.70;;;;;;1590254;73;802;-62
2023/02/14 09:16:30;;;;;;;;;;;21.40;51.70;;;;;;1586576;73;712;-63
2023/02/14 09:18:32;;;;;;;;;;;21.40;51.80;;;;;;1587132;73;1298;-62
2023/02/14 09:20:34;;;;;;;;;;;21.40;51.70;;;;;;1594351;73;1148;-60
2023/02/14 09:22:35;;;;;;;;;;;21.30;51.70;;;;;;1606095;73;688;-61
2023/02/14 09:24:38;;;;;;;;;;;21.30;51.70;;;;;;1610146;73;802;-62
2023/02/14 09:26:41;;;;;;;;;;;21.30;51.80;;;;;;1602691;73;792;-61
2023/02/14 09:28:43;;;;;;;;;;;21.30;51.80;;;;;;1605824;73;1915;-62
2023/02/14 09:30:44;;;;;;;;;;;21.40;51.80;;;;;;1587683;73;1124;-61
2023/02/14 09:32:46;;;;;;;;;;;21.20;51.80;;;;;;1591763;73;1744;-59
2023/02/14 09:37:09;;;;;;;;;;;21.30;51.90;;;;;;1595593;73;721;-62
2023/02/14 09:39:11;;;;;;;;;;;21.30;51.90;;;;;;1601107;73;715;-62
2023/02/14 09:41:30;;;;;;;;;;;21.30;51.90;;;;;;1596946;73;1172;-61
2023/02/14 09:43:50;;;;;;;;;;;21.20;51.80;;;;;;1591031;73;717;-61
2023/02/14 09:45:54;;;;;;;;;;;21.30;51.90;;;;;;1550180;76;752;-60
2023/02/14 09:48:00;;;;;;;;;;;21.20;51.80;;;;;;1559179;75;730;-61
2023/02/14 09:50:05;;;;;;;;;;;21.30;52.00;;;;;;1548053;76;1951;-62
2023/02/14 09:52:09;;;;;;;;;;;21.20;51.90;;;;;;1581909;74;705;-63
2023/02/14 09:54:20;;;;;;;;;;;21.20;51.80;;;;;;1592465;74;941;-61
2023/02/14 09:56:26;;;;;;;;;;;21.30;52.00;;;;;;1584558;74;1644;-62
2023/02/14 09:58:30;;;;;;;;;;;21.30;51.90;;;;;;1581079;74;705;-63
2023/02/14 10:00:33;;;;;;;;;;;21.20;51.80;;;;;;1581363;74;1598;-61
2023/02/14 10:02:37;;;;;;;;;;;21.30;51.90;;;;;;1581134;74;782;-61
2023/02/14 10:04:43;;;;;;;;;;;21.30;51.80;;;;;;1591793;74;779;-63
2023/02/14 10:06:46;;;;;;;;;;;21.30;51.80;;;;;;1579882;74;1887;-63
2023/02/14 10:09:04;;;;;;;;;;;21.30;51.80;;;;;;1587107;74;1929;-60
2023/02/14 10:11:10;;;;;;;;;;;21.20;51.70;;;;;;1584525;74;1899;-62
2023/02/14 10:13:14;;;;;;;;;;;21.30;51.80;;;;;;1584821;74;727;-61
2023/02/14 10:15:17;;;;;;;;;;;21.30;51.70;;;;;;1581724;74;1556;-62
2023/02/14 10:17:21;;;;;;;;;;;21.30;51.70;;;;;;1592891;74;754;-62
2023/02/14 10:19:30;;;;;;;;;;;21.30;51.70;;;;;;1581002;74;754;-61
2023/02/14 10:21:43;;;;;;;;;;;21.20;51.50;;;;;;1580014;74;1692;-60
2023/02/14 10:23:53;;;;;;;;;;;21.20;51.60;;;;;;1590364;74;1552;-62
2023/02/14 10:26:01;;;;;;;;;;;21.20;51.50;;;;;;1587730;74;1787;-62
2023/02/14 10:28:03;;;;;;;;;;;21.30;51.70;;;;;;1581279;74;773;-61
2023/02/14 10:30:11;;;;;;;;;;;21.20;51.50;;;;;;1586811;74;1937;-60
2023/02/14 10:32:14;;;;;;;;;;;21.30;51.60;;;;;;1598436;73;1008;-62
2023/02/14 10:34:17;;;;;;;;;;;21.20;51.40;;;;;;1596788;73;747;-61
2023/02/14 10:36:29;;;;;;;;;;;21.20;51.40;;;;;;1589218;73;1906;-62
2023/02/14 10:38:42;;;;;;;;;;;21.20;51.40;;;;;;1595470;73;1460;-62
2023/02/14 10:40:46;;;;;;;;;;;21.20;51.40;;;;;;1592464;73;1951;-59
2023/02/14 10:43:05;;;;;;;;;;;21.30;51.50;;;;;;1593676;73;1580;-62
2023/02/14 10:45:21;;;;;;;;;;;21.30;51.50;;;;;;1590378;73;783;-63
2023/02/14 10:47:33;;;;;;;;;;;21.30;51.40;;;;;;1592268;73;1920;-62
2023/02/14 10:49:46;;;;;;;;;;;21.20;51.30;;;;;;1588815;73;1941;-62
2023/02/14 10:51:52;;;;;;;;;;;21.10;51.40;;;;;;1595749;73;743;-61
2023/02/14 10:54:13;;;;;;;;;;;21.10;51.50;;;;;;1587420;73;723;-62
2023/02/14 10:56:19;;;;;;;;;;;21.10;51.50;;;;;;1592874;73;1517;-63
2023/02/14 10:58:22;;;;;;;;;;;21.10;51.40;;;;;;1599880;73;745;-61
2023/02/14 11:00:25;;;;;;;;;;;21.00;51.40;;;;;;1595413;73;1135;-62
2023/02/14 11:02:29;;;;;;;;;;;21.10;51.40;;;;;;1591447;73;702;-62
2023/02/14 11:04:31;;;;;;;;;;;21.10;51.50;;;;;;1591911;73;1372;-63
2023/02/14 11:06:33;;;;;;;;;;;21.10;51.40;;;;;;1590710;73;705;-62
2023/02/14 11:08:35;;;;;;;;;;;21.10;51.40;;;;;;1590088;73;713;-64
2023/02/14 11:10:37;;;;;;;;;;;21.10;51.30;;;;;;1591182;73;1941;-63
2023/02/14 11:12:39;;;;;;;;;;;21.10;51.30;;;;;;1603988;73;795;-63
2023/02/14 11:14:42;;;;;;;;;;;21.10;51.40;;;;;;1605380;73;794;-63
2023/02/14 11:16:44;;;;;;;;;;;21.20;51.40;;;;;;1591074;73;725;-63
2023/02/14 11:18:46;;;;;;;;;;;21.20;51.30;;;;;;1590772;73;701;-63
2023/02/14 11:21:04;;;;;;;;;;;21.10;51.30;;;;;;1592163;73;1138;-63
2023/02/14 11:23:19;;;;;;;;;;;21.10;51.30;;;;;;1595259;73;696;-63
2023/02/14 11:25:25;;;;;;;;;;;21.20;51.30;;;;;;1592134;73;1488;-63
2023/02/14 11:27:27;;;;;;;;;;;21.20;51.30;;;;;;1589110;73;1899;-63
2023/02/14 11:29:34;;;;;;;;;;;21.20;51.30;;;;;;1597153;73;1921;-63
2023/02/14 11:31:36;;;;;;;;;;;21.10;51.30;;;;;;1593100;73;1045;-62
2023/02/14 11:33:39;;;;;;;;;;;21.10;51.30;;;;;;1592056;73;977;-63
2023/02/14 11:35:41;;;;;;;;;;;21.10;51.30;;;;;;1590719;73;677;-61
2023/02/14 11:37:45;;;;;;;;;;;21.20;51.30;;;;;;1599631;73;709;-62
2023/02/14 11:39:47;;;;;;;;;;;21.10;51.30;;;;;;1598159;73;1607;-62
2023/02/14 11:41:50;;;;;;;;;;;21.20;51.30;;;;;;1593555;73;661;-62
2023/02/14 11:43:52;;;;;;;;;;;21.10;51.30;;;;;;1609240;73;1704;-63
2023/02/14 11:45:56;;;;;;;;;;;21.20;51.30;;;;;;1575935;75;745;-63
2023/02/14 11:48:02;;;;;;;;;;;21.10;51.30;;;;;;1590151;73;1914;-64
2023/02/14 11:50:05;;;;;;;;;;;21.10;51.30;;;;;;1583722;73;1931;-63
2023/02/14 11:52:09;;;;;;;;;;;21.20;51.30;;;;;;1598438;73;753;-63
2023/02/14 11:54:13;;;;;;;;;;;21.10;51.40;;;;;;1608908;73;1505;-63
2023/02/14 11:56:15;;;;;;;;;;;21.20;51.40;;;;;;1599930;73;1837;-63
2023/02/14 11:58:18;;;;;;;;;;;21.10;51.50;;;;;;1592273;73;754;-62
2023/02/14 12:00:20;;;;;;;;;;;21.10;51.50;;;;;;1602601;73;1899;-63
2023/02/14 12:02:30;;;;;;;;;;;21.10;51.50;;;;;;1598235;73;723;-62
2023/02/14 12:04:33;;;;;;;;;;;21.20;51.50;;;;;;1599227;73;764;-63
2023/02/14 12:06:35;;;;;;;;;;;21.10;51.50;;;;;;1600255;73;1575;-63
2023/02/14 12:08:38;;;;;;;;;;;21.10;51.50;;;;;;1594635;73;790;-62
2023/02/14 12:10:44;;;;;;;;;;;21.10;51.60;;;;;;1595731;73;1914;-62
2023/02/14 12:12:53;;;;;;;;;;;21.20;51.60;;;;;;1597625;73;1155;-63
2023/02/14 12:14:57;;;;;;;;;;;21.10;51.50;;;;;;1592997;73;559;-62
2023/02/14 12:17:02;;;;;;;;;;;21.10;51.50;;;;;;1594955;73;1602;-63
2023/02/14 12:19:06;;;;;;;;;;;21.20;51.50;;;;;;1591817;73;1043;-64
2023/02/14 12:21:12;;;;;;;;;;;21.10;51.60;;;;;;1597440;73;1683;-63
2023/02/14 12:23:32;;;;;;;;;;;21.10;51.60;;;;;;1592211;73;792;-62
2023/02/14 12:25:42;;;;;;;;;;;21.10;51.70;;;;;;1599115;73;693;-63
2023/02/14 12:27:48;;;;;;;;;;;21.20;51.70;;;;;;1595107;73;1804;-63
2023/02/14 12:30:01;;;;;;;;;;;21.10;51.80;;;;;;1592440;73;1926;-64
2023/02/14 12:32:17;;;;;;;;;;;21.10;51.80;;;;;;1596861;73;707;-61